Time;durP1;ratioP1;P1;durP2;ratioP2;P2;SDS_P1;SDS_P2;PMS_P1;PMS_P2;Temp;Humidity;BMP_temperature;BMP_pressure;BME280_temperature;BME280_humidity;BME280_pressure;Samples;Min_cycle;Max_cycle;Signal;HPM_P1;HPM_P2
2023/08/31 00:02:49;;;;;;;3.97;0.60;;;19.30;78.70;;;;;;10552702;28;20052;-33
2023/08/31 00:07:51;;;;;;;0.88;0.50;;;21.70;69.50;;;;;;10550018;27;20127;-35
2023/08/31 00:12:54;;;;;;;;;;;22.50;67.60;;;;;;10557262;28;20051;-32
2023/08/31 00:17:56;;;;;;;1.15;0.50;;;23.70;62.80;;;;;;10552601;28;19920;-35
2023/08/31 00:22:58;;;;;;;3.03;0.50;;;24.00;61.70;;;;;;10554290;28;20072;-34
2023/08/31 00:28:04;;;;;;;;;;;24.00;61.20;;;;;;10554453;27;20040;-32
2023/08/31 00:33:06;;;;;;;1.63;0.50;;;24.10;60.90;;;;;;10557403;27;20025;-35
2023/08/31 00:38:09;;;;;;;;;;;24.10;60.80;;;;;;10557543;27;20070;-34
2023/08/31 00:43:15;;;;;;;1.55;0.30;;;24.10;60.80;;;;;;10547386;28;19923;-34
2023/08/31 00:48:18;;;;;;;1.98;0.57;;;24.10;60.70;;;;;;10554309;27;20072;-34
2023/08/31 00:53:20;;;;;;;1.27;0.40;;;24.00;60.60;;;;;;10559350;28;20043;-36
2023/08/31 00:58:23;;;;;;;1.15;0.45;;;24.00;60.60;;;;;;10545874;28;20039;-33
2023/08/31 01:03:36;;;;;;;1.23;0.30;;;23.90;60.60;;;;;;10551507;27;20508;-34
2023/08/31 01:08:45;;;;;;;0.35;0.20;;;23.90;60.70;;;;;;10544454;27;20526;-34
2023/08/31 01:13:54;;;;;;;1.30;0.25;;;23.90;60.30;;;;;;10547528;27;20058;-36
2023/08/31 01:18:58;;;;;;;1.65;0.40;;;23.60;60.90;;;;;;10555007;27;20052;-39
2023/08/31 01:24:02;;;;;;;0.70;0.30;;;23.20;63.40;;;;;;10547458;27;20477;-39
2023/08/31 01:29:05;;;;;;;0.40;0.20;;;23.50;62.20;;;;;;10543985;28;20488;-38
2023/08/31 01:34:07;;;;;;;1.15;0.30;;;23.80;61.40;;;;;;10546286;28;20040;-40
2023/08/31 01:39:15;;;;;;;2.25;1.58;;;23.70;61.00;;;;;;10542599;28;20474;-38
2023/08/31 01:44:18;;;;;;;0.73;0.30;;;21.50;66.10;;;;;;10545634;28;20083;-39
2023/08/31 01:49:20;;;;;;;2.95;0.60;;;21.90;67.40;;;;;;10547433;28;20072;-39
2023/08/31 01:54:24;;;;;;;3.75;0.60;;;20.40;73.10;;;;;;10535167;27;20134;-35
2023/08/31 01:59:26;;;;;;;1.33;0.50;;;20.20;75.70;;;;;;10541789;27;20052;-33
2023/08/31 02:04:28;;;;;;;1.52;0.47;;;21.80;69.30;;;;;;10536607;28;20047;-42
2023/08/31 02:09:31;;;;;;;3.70;0.52;;;20.30;76.70;;;;;;10539277;28;20139;-35
2023/08/31 02:14:33;;;;;;;3.33;0.43;;;20.00;79.90;;;;;;10543478;27;20476;-32
2023/08/31 02:19:35;;;;;;;3.95;0.77;;;20.30;71.50;;;;;;10536614;28;20094;-36
2023/08/31 02:24:38;;;;;;;1.92;0.50;;;19.10;79.70;;;;;;10537936;28;20048;-36
2023/08/31 02:29:40;;;;;;;1.10;0.47;;;20.90;75.50;;;;;;10544755;28;20074;-32
2023/08/31 02:34:42;;;;;;;2.45;0.65;;;20.10;78.10;;;;;;10536398;28;20510;-31
2023/08/31 02:39:45;;;;;;;4.65;0.70;;;20.30;76.40;;;;;;10541622;28;20087;-35
2023/08/31 02:44:47;;;;;;;2.50;0.82;;;19.30;79.40;;;;;;10541531;28;20078;-36
2023/08/31 02:49:49;;;;;;;3.50;0.60;;;20.50;76.60;;;;;;10533115;28;20060;-36
2023/08/31 02:54:52;;;;;;;2.38;0.68;;;19.70;70.90;;;;;;10540606;28;20051;-33
2023/08/31 03:15:30;;;;;;;2.38;0.82;;;19.70;76.00;;;;;;10480719;27;20117;-32
2023/08/31 03:20:32;;;;;;;0.80;0.50;;;19.60;73.40;;;;;;10481417;28;20049;-35
2023/08/31 03:25:33;;;;;;;0.80;0.40;;;20.40;74.50;;;;;;10481170;28;20047;-35
2023/08/31 03:30:37;;;;;;;3.20;0.45;;;20.20;71.70;;;;;;10480923;28;20123;-32
2023/08/31 03:35:39;;;;;;;8.82;1.00;;;19.90;75.80;;;;;;10481136;28;20131;-34
2023/08/31 03:40:41;;;;;;;4.95;0.73;;;19.00;80.40;;;;;;10477913;28;20083;-33
2023/08/31 03:45:44;;;;;;;3.15;0.63;;;19.50;73.10;;;;;;10480943;28;20072;-39
2023/08/31 03:50:50;;;;;;;4.60;0.65;;;18.90;78.50;;;;;;10480313;28;20082;-39
2023/08/31 03:55:51;;;;;;;2.70;0.65;;;19.40;76.50;;;;;;10479065;28;20051;-32
2023/08/31 04:00:55;;;;;;;1.55;0.60;;;20.60;73.20;;;;;;10480040;28;20053;-34
2023/08/31 04:05:57;;;;;;;3.97;0.52;;;20.70;71.90;;;;;;10478196;28;20055;-34
2023/08/31 04:10:59;;;;;;;4.53;0.80;;;19.50;75.20;;;;;;10479214;28;20520;-32
2023/08/31 04:16:03;;;;;;;2.03;0.57;;;19.90;73.90;;;;;;10479131;28;20044;-33
2023/08/31 04:21:05;;;;;;;1.65;0.40;;;20.20;73.20;;;;;;10475196;28;20045;-32
2023/08/31 04:26:13;;;;;;;2.90;0.60;;;19.50;80.20;;;;;;10452211;28;20135;-34
2023/08/31 04:31:17;;;;;;;5.07;0.85;;;20.90;70.20;;;;;;10446883;28;20052;-33
2023/08/31 04:36:18;;;;;;;3.00;0.75;;;19.70;72.50;;;;;;10449476;28;20137;-38
2023/08/31 04:41:20;;;;;;;3.40;0.88;;;20.20;70.60;;;;;;10449805;28;20072;-36
2023/08/31 04:46:24;;;;;;;8.73;0.73;;;18.60;79.90;;;;;;10454188;28;20080;-31
2023/08/31 04:51:33;;;;;;;1.55;0.57;;;19.50;78.70;;;;;;10454085;28;20089;-41
2023/08/31 04:56:35;;;;;;;5.95;0.80;;;19.80;72.50;;;;;;10453118;28;20049;-32
2023/08/31 05:01:40;;;;;;;2.25;0.47;;;19.40;74.50;;;;;;10445835;28;20427;-35
2023/08/31 05:06:42;;;;;;;1.02;0.60;;;20.70;72.60;;;;;;10457591;28;20052;-36
2023/08/31 05:11:44;;;;;;;3.17;0.70;;;21.00;70.30;;;;;;10449824;28;20591;-35
2023/08/31 05:16:48;;;;;;;9.50;1.00;;;20.00;73.60;;;;;;10449873;28;20131;-36
2023/08/31 05:21:49;;;;;;;6.28;0.85;;;19.20;76.40;;;;;;10452774;28;20409;-36
2023/08/31 05:26:51;;;;;;;0.90;0.50;;;17.90;84.30;;;;;;10449909;28;20045;-32
2023/08/31 05:31:55;;;;;;;2.47;0.93;;;20.20;74.10;;;;;;10447482;28;20055;-35
2023/08/31 05:36:56;;;;;;;0.70;0.50;;;18.60;81.80;;;;;;10453745;28;20124;-33
2023/08/31 05:41:58;;;;;;;1.17;0.60;;;19.90;74.60;;;;;;10455261;28;20439;-34
2023/08/31 05:47:03;;;;;;;3.13;0.75;;;19.90;73.10;;;;;;10439871;28;20723;-32
2023/08/31 05:52:06;;;;;;;5.85;0.57;;;18.40;84.10;;;;;;10456503;28;20053;-37
2023/08/31 05:57:07;;;;;;;3.22;0.50;;;19.70;75.60;;;;;;10454973;28;20072;-38
2023/08/31 06:02:11;;;;;;;3.15;0.55;;;18.60;82.70;;;;;;10447680;28;20081;-35
2023/08/31 06:07:12;;;;;;;5.53;0.90;;;18.70;81.50;;;;;;10447095;28;20497;-35
2023/08/31 06:12:14;;;;;;;0.75;0.60;;;19.40;75.80;;;;;;10441528;28;20446;-37
2023/08/31 06:17:17;;;;;;;3.00;0.63;;;20.90;68.30;;;;;;10444019;28;20544;-35
2023/08/31 06:22:21;;;;;;;3.60;0.50;;;19.50;75.90;;;;;;10447693;28;20055;-39
2023/08/31 06:27:23;;;;;;;1.63;0.60;;;20.30;73.00;;;;;;10451027;28;20037;-32
2023/08/31 06:32:27;;;;;;;2.28;0.50;;;20.90;70.10;;;;;;10447234;28;20139;-40
2023/08/31 06:37:29;;;;;;;2.83;0.57;;;21.50;67.60;;;;;;10452110;28;20037;-37
2023/08/31 06:42:31;;;;;;;2.30;0.60;;;20.90;69.90;;;;;;10444725;28;20130;-37
2023/08/31 06:47:34;;;;;;;2.55;1.05;;;21.30;66.70;;;;;;10451515;28;20527;-37
2023/08/31 06:52:36;;;;;;;3.75;0.68;;;21.60;68.00;;;;;;10437616;28;20489;-38
2023/08/31 06:57:38;;;;;;;3.25;0.80;;;21.20;69.70;;;;;;10437899;28;20041;-41
2023/08/31 07:02:42;;;;;;;12.27;2.45;;;21.90;68.20;;;;;;10444946;28;20702;-34
2023/08/31 07:07:43;;;;;;;3.42;0.88;;;21.10;71.00;;;;;;10451942;28;20053;-32
2023/08/31 07:12:45;;;;;;;3.08;0.70;;;20.10;70.10;;;;;;10449135;28;20061;-36
2023/08/31 07:17:49;;;;;;;12.02;1.17;;;22.50;65.50;;;;;;10443552;28;20139;-38
2023/08/31 07:22:50;;;;;;;8.52;0.80;;;20.50;76.90;;;;;;10449541;28;20072;-32
2023/08/31 07:27:53;;;;;;;4.50;0.70;;;21.20;68.40;;;;;;10449770;28;20474;-40
2023/08/31 07:32:56;;;;;;;;;;;21.10;71.00;;;;;;10451277;28;20675;-31
2023/08/31 07:37:58;;;;;;;2.85;0.75;;;20.80;68.00;;;;;;10441582;28;19980;-35
2023/08/31 07:42:59;;;;;;;5.15;0.70;;;22.10;67.10;;;;;;10444275;28;20075;-32
2023/08/31 07:48:03;;;;;;;1.00;0.50;;;21.00;70.90;;;;;;10456747;28;20135;-32
2023/08/31 07:53:05;;;;;;;3.85;0.85;;;21.90;65.80;;;;;;10449369;28;20571;-36
2023/08/31 07:58:07;;;;;;;;;;;21.20;68.60;;;;;;10443497;28;20064;-35
2023/08/31 08:03:11;;;;;;;7.55;0.88;;;21.20;63.80;;;;;;10453276;28;19992;-32
2023/08/31 08:08:13;;;;;;;3.92;1.08;;;22.00;64.50;;;;;;10456843;28;20098;-32
2023/08/31 08:13:15;;;;;;;3.80;0.88;;;21.60;62.90;;;;;;10453261;28;20102;-33
2023/08/31 08:18:18;;;;;;;;;;;19.60;69.90;;;;;;10458694;28;20449;-40
2023/08/31 08:23:21;;;;;;;4.60;1.48;;;19.50;77.10;;;;;;10454102;28;19963;-33
2023/08/31 08:28:23;;;;;;;3.67;0.52;;;19.40;78.80;;;;;;10452554;28;20041;-32
2023/08/31 08:33:26;;;;;;;1.45;0.80;;;20.20;72.00;;;;;;10442448;28;20045;-37
2023/08/31 08:38:28;;;;;;;6.97;0.93;;;20.30;70.90;;;;;;10449177;28;20128;-41
2023/08/31 08:43:30;;;;;;;1.67;0.50;;;18.90;74.40;;;;;;10451935;28;20564;-37
2023/08/31 08:48:34;;;;;;;;;;;19.70;72.50;;;;;;10450750;28;20068;-37
2023/08/31 08:53:37;;;;;;;4.70;0.70;;;19.60;72.80;;;;;;10460645;28;20011;-38
2023/08/31 08:58:39;;;;;;;6.00;1.13;;;20.50;72.40;;;;;;10448076;28;20045;-35
2023/08/31 09:03:42;;;;;;;3.78;0.95;;;20.10;72.30;;;;;;10449146;28;20088;-37
2023/08/31 09:08:44;;;;;;;1.65;0.47;;;18.80;73.70;;;;;;10450706;28;20064;-36
2023/08/31 09:13:46;;;;;;;1.30;0.65;;;20.30;72.90;;;;;;10449501;28;20152;-35
2023/08/31 09:18:49;;;;;;;2.42;0.80;;;21.40;68.50;;;;;;10450728;28;20505;-32
2023/08/31 09:23:58;;;;;;;2.08;0.65;;;19.70;72.60;;;;;;10451970;28;20041;-34
2023/08/31 09:29:00;;;;;;;1.55;0.40;;;20.30;68.40;;;;;;10438189;28;20156;-35
2023/08/31 09:34:04;;;;;;;1.63;0.52;;;19.30;74.60;;;;;;10448126;28;20124;-38
2023/08/31 09:39:07;;;;;;;2.80;0.88;;;19.50;73.40;;;;;;10449897;28;20552;-36
2023/08/31 09:44:19;;;;;;;2.08;0.82;;;20.20;69.50;;;;;;10457486;28;20056;-32
2023/08/31 09:49:22;;;;;;;3.03;0.60;;;19.70;71.00;;;;;;10454342;28;20068;-34
2023/08/31 09:54:28;;;;;;;2.13;0.47;;;19.90;75.60;;;;;;10468254;28;20170;-32
2023/08/31 09:59:30;;;;;;;2.90;1.00;;;20.10;68.20;;;;;;10447192;28;20128;-34
2023/08/31 10:04:36;;;;;;;;;;;20.30;69.70;;;;;;10455929;28;20106;-39
2023/08/31 10:09:38;;;;;;;3.10;0.50;;;20.70;72.10;;;;;;10462812;28;20730;-32
2023/08/31 10:14:41;;;;;;;4.43;0.60;;;20.20;69.90;;;;;;10441469;28;20136;-35
2023/08/31 10:19:44;;;;;;;3.72;0.50;;;20.30;70.00;;;;;;10448972;28;20052;-37
2023/08/31 10:24:59;;;;;;;0.35;0.35;;;21.00;67.10;;;;;;10447882;28;20458;-33
2023/08/31 10:30:14;;;;;;;1.63;0.50;;;19.70;68.90;;;;;;10448483;28;20056;-32
2023/08/31 10:35:19;;;;;;;15.32;1.13;;;20.00;70.70;;;;;;10447647;28;20041;-37
2023/08/31 10:40:21;;;;;;;3.00;1.15;;;19.40;70.90;;;;;;10443986;28;20426;-31
2023/08/31 10:45:22;;;;;;;2.88;0.68;;;20.20;75.10;;;;;;10453370;28;20045;-36
2023/08/31 10:50:26;;;;;;;3.38;1.08;;;19.70;72.00;;;;;;10441885;28;20060;-35
2023/08/31 10:55:32;;;;;;;1.63;0.45;;;21.20;69.10;;;;;;10444465;28;20080;-35
2023/08/31 11:00:52;;;;;;;3.30;0.77;;;20.30;65.00;;;;;;10444199;28;20045;-35
2023/08/31 11:05:55;;;;;;;3.50;1.38;;;21.30;68.90;;;;;;10448421;28;20056;-35
2023/08/31 11:10:57;;;;;;;0.68;0.43;;;19.90;66.80;;;;;;10440966;28;20128;-36
2023/08/31 11:15:59;;;;;;;2.47;0.80;;;20.40;70.90;;;;;;10450330;28;20139;-37
2023/08/31 11:21:05;;;;;;;3.08;0.60;;;21.10;72.10;;;;;;10444478;28;20041;-33
2023/08/31 11:26:08;;;;;;;10.75;1.05;;;21.40;71.20;;;;;;10447394;28;20044;-38
2023/08/31 11:31:09;;;;;;;3.50;0.50;;;20.80;64.00;;;;;;10446121;28;20045;-33
2023/08/31 11:36:17;;;;;;;2.00;0.68;;;20.80;69.60;;;;;;10443444;28;20048;-34
2023/08/31 11:41:18;;;;;;;1.90;0.52;;;20.50;68.80;;;;;;10453531;28;20045;-34
2023/08/31 11:46:20;;;;;;;2.00;0.47;;;21.40;71.50;;;;;;10455577;28;20063;-36
2023/08/31 11:51:24;;;;;;;4.55;1.17;;;20.90;65.20;;;;;;10457017;28;20048;-36
2023/08/31 11:56:25;;;;;;;2.95;0.82;;;21.20;70.30;;;;;;10452226;28;20059;-32
2023/08/31 12:01:27;;;;;;;4.22;0.80;;;21.20;65.10;;;;;;10452643;28;20783;-39
2023/08/31 12:06:31;;;;;;;;;;;21.80;65.90;;;;;;10452030;28;20559;-39
2023/08/31 12:11:32;;;;;;;3.20;0.93;;;21.50;65.50;;;;;;10450904;28;19956;-42
2023/08/31 12:16:36;;;;;;;2.17;0.68;;;21.60;68.00;;;;;;10450627;28;20045;-35
2023/08/31 12:21:39;;;;;;;3.92;0.85;;;22.30;65.90;;;;;;10455108;28;20040;-46
2023/08/31 12:26:41;;;;;;;1.98;0.60;;;22.40;66.40;;;;;;10450721;28;20049;-29
2023/08/31 12:31:44;;;;;;;3.45;0.70;;;22.90;66.60;;;;;;10449223;28;20132;-31
2023/08/31 12:36:47;;;;;;;3.65;1.08;;;22.50;66.70;;;;;;10450109;28;20053;-35
2023/08/31 12:41:49;;;;;;;3.83;0.80;;;22.10;67.40;;;;;;10451414;28;20103;-35
2023/08/31 12:46:51;;;;;;;2.50;0.95;;;21.80;63.30;;;;;;10458389;28;20049;-33
2023/08/31 12:51:54;;;;;;;7.00;1.15;;;21.90;63.40;;;;;;10451939;28;20084;-34
2023/08/31 12:56:56;;;;;;;2.72;0.85;;;23.00;63.20;;;;;;10448092;28;20047;-34
2023/08/31 13:01:59;;;;;;;1.60;0.50;;;22.70;61.00;;;;;;10449562;28;20053;-36
2023/08/31 13:07:03;;;;;;;2.60;0.73;;;22.50;65.50;;;;;;10452106;28;20083;-34
2023/08/31 13:12:05;;;;;;;2.95;0.70;;;23.30;63.60;;;;;;10447441;28;20131;-36
2023/08/31 13:17:07;;;;;;;3.13;0.75;;;23.10;61.90;;;;;;10451663;28;20164;-41
2023/08/31 13:22:15;;;;;;;1.70;0.65;;;24.30;61.70;;;;;;10457299;28;20130;-39
2023/08/31 13:27:17;;;;;;;2.70;0.70;;;23.70;64.90;;;;;;10441093;28;20052;-33
2023/08/31 13:32:18;;;;;;;;;;;23.90;62.80;;;;;;10449352;28;20131;-29
2023/08/31 13:37:23;;;;;;;1.80;0.60;;;23.70;59.60;;;;;;10453339;28;19924;-37
2023/08/31 13:42:25;;;;;;;6.15;0.43;;;24.60;62.40;;;;;;10456690;28;20136;-34
2023/08/31 13:47:27;;;;;;;2.63;0.50;;;24.50;61.10;;;;;;10454277;28;20037;-33
2023/08/31 13:52:30;;;;;;;3.15;0.60;;;24.80;64.00;;;;;;10445919;28;20192;-38
2023/08/31 13:57:32;;;;;;;1.70;0.50;;;25.00;58.10;;;;;;10443702;28;20135;-36
2023/08/31 14:02:33;;;;;;;1.45;0.40;;;25.00;62.40;;;;;;10447991;28;20140;-33
2023/08/31 14:07:37;;;;;;;3.53;0.52;;;25.30;58.70;;;;;;10446843;28;20044;-40
2023/08/31 14:12:39;;;;;;;3.03;0.80;;;25.80;60.10;;;;;;10446776;28;20525;-38
2023/08/31 14:17:41;;;;;;;;;;;26.10;54.70;;;;;;10446056;28;20450;-33
2023/08/31 14:22:45;;;;;;;3.72;1.13;;;25.80;58.30;;;;;;10451852;28;19971;-35
2023/08/31 14:27:48;;;;;;;2.70;0.60;;;26.10;58.40;;;;;;10445290;28;20041;-36
2023/08/31 14:32:49;;;;;;;1.92;0.47;;;25.40;62.80;;;;;;10441354;28;20470;-43
2023/08/31 14:37:53;;;;;;;1.55;0.75;;;26.70;61.30;;;;;;10446560;28;20102;-32
2023/08/31 14:42:55;;;;;;;3.85;0.60;;;26.60;60.00;;;;;;10443410;28;20477;-37
2023/08/31 14:47:56;;;;;;;6.50;1.85;;;26.90;56.70;;;;;;10436998;28;20041;-33
2023/08/31 14:53:00;;;;;;;1.05;0.45;;;26.70;55.30;;;;;;10443554;28;20165;-36
2023/08/31 14:58:03;;;;;;;3.08;0.60;;;26.80;58.90;;;;;;10438728;28;20471;-33
2023/08/31 15:03:05;;;;;;;2.03;0.73;;;26.10;57.20;;;;;;10442433;28;20083;-34
2023/08/31 15:08:10;;;;;;;1.58;0.43;;;26.10;59.20;;;;;;10456498;28;20068;-36
2023/08/31 15:13:12;;;;;;;2.38;0.98;;;26.60;56.00;;;;;;10442904;28;20093;-41
2023/08/31 15:18:15;;;;;;;3.25;0.80;;;26.30;59.90;;;;;;10440821;28;20071;-36
2023/08/31 15:23:18;;;;;;;2.38;0.57;;;25.60;54.50;;;;;;10437769;28;20053;-34
2023/08/31 15:28:20;;;;;;;1.83;0.30;;;26.50;61.30;;;;;;10424377;28;20072;-32
2023/08/31 15:33:22;;;;;;;1.38;0.50;;;27.00;58.80;;;;;;10429114;28;20140;-39
2023/08/31 15:38:25;;;;;;;3.13;0.68;;;27.20;60.20;;;;;;10441244;28;20068;-32
2023/08/31 15:43:31;;;;;;;0.30;0.30;;;27.10;56.80;;;;;;10437579;28;20166;-39
2023/08/31 15:48:32;;;;;;;0.73;0.57;;;27.50;58.30;;;;;;10435459;28;20052;-34
2023/08/31 15:53:36;;;;;;;1.02;0.40;;;27.40;58.70;;;;;;10436903;28;20072;-38
2023/08/31 15:58:37;;;;;;;2.40;0.77;;;27.40;58.50;;;;;;10442868;28;20086;-37
2023/08/31 16:03:41;;;;;;;0.90;0.52;;;26.70;54.90;;;;;;10438527;28;20145;-35
2023/08/31 16:08:44;;;;;;;1.33;0.60;;;27.30;59.40;;;;;;10442424;28;20057;-36
2023/08/31 16:13:46;;;;;;;2.63;0.88;;;27.10;57.70;;;;;;10441197;28;20092;-36
2023/08/31 16:18:48;;;;;;;2.28;0.50;;;27.10;55.80;;;;;;10444699;28;20048;-36
2023/08/31 16:23:51;;;;;;;3.67;0.75;;;26.80;60.00;;;;;;10449986;28;20053;-34
2023/08/31 16:28:53;;;;;;;2.92;0.65;;;27.20;53.30;;;;;;10451939;28;20076;-34
2023/08/31 16:33:55;;;;;;;1.50;0.77;;;27.40;58.40;;;;;;10446366;28;20149;-32
2023/08/31 16:38:58;;;;;;;2.92;0.52;;;27.60;55.40;;;;;;10454611;28;20076;-40
2023/08/31 16:44:00;;;;;;;1.23;0.55;;;27.90;52.30;;;;;;10442995;28;20124;-32
2023/08/31 16:49:02;;;;;;;2.53;0.70;;;28.00;57.40;;;;;;10443211;28;20076;-39
2023/08/31 16:54:06;;;;;;;0.47;0.28;;;28.00;57.50;;;;;;10453509;28;20047;-33
2023/08/31 16:59:07;;;;;;;1.05;0.50;;;27.80;58.10;;;;;;10444585;28;20143;-42
2023/08/31 17:04:09;;;;;;;1.75;0.50;;;28.00;57.60;;;;;;10445533;28;20647;-34
2023/08/31 17:09:13;;;;;;;0.82;0.50;;;28.10;57.20;;;;;;10443207;28;20049;-31
2023/08/31 17:14:19;;;;;;;1.67;0.73;;;28.10;56.80;;;;;;10447542;28;20137;-35
2023/08/31 17:19:21;;;;;;;1.67;0.40;;;28.10;56.80;;;;;;10445003;28;20129;-33
2023/08/31 17:24:24;;;;;;;2.28;0.60;;;28.10;56.60;;;;;;10445152;28;20910;-34
2023/08/31 17:29:26;;;;;;;3.83;0.82;;;28.00;56.60;;;;;;10446679;28;20428;-37
2023/08/31 17:34:28;;;;;;;5.80;0.73;;;27.90;59.70;;;;;;10446536;28;20147;-35
2023/08/31 17:39:31;;;;;;;1.55;0.68;;;27.90;55.50;;;;;;10446840;28;20144;-32
2023/08/31 17:44:33;;;;;;;1.75;0.60;;;28.00;55.40;;;;;;10446161;28;20395;-32
2023/08/31 17:49:35;;;;;;;3.50;0.70;;;28.00;56.50;;;;;;10445474;28;20152;-38
2023/08/31 17:54:39;;;;;;;2.03;0.60;;;28.00;56.60;;;;;;10445825;28;20068;-44
2023/08/31 17:59:41;;;;;;;1.42;0.82;;;27.90;56.60;;;;;;10440553;28;20037;-35
2023/08/31 18:04:42;;;;;;;2.13;0.50;;;27.80;56.50;;;;;;10453682;28;20138;-37
2023/08/31 18:09:46;;;;;;;1.80;0.50;;;27.80;56.50;;;;;;10450609;28;20473;-37
2023/08/31 18:14:47;;;;;;;2.28;0.65;;;27.80;56.50;;;;;;10447970;28;20056;-39
2023/08/31 18:19:53;;;;;;;0.95;0.60;;;27.70;56.60;;;;;;10448732;28;20051;-37
2023/08/31 18:24:56;;;;;;;1.25;0.50;;;27.70;56.60;;;;;;10446901;28;20049;-35
2023/08/31 18:29:58;;;;;;;1.67;0.55;;;27.60;56.60;;;;;;10445650;28;20565;-36
2023/08/31 18:34:59;;;;;;;0.93;0.55;;;27.60;56.70;;;;;;10446874;28;20057;-38
2023/08/31 18:40:04;;;;;;;1.48;0.50;;;27.60;56.90;;;;;;10444119;28;20143;-35
2023/08/31 18:45:09;;;;;;;0.93;0.40;;;27.50;56.90;;;;;;10448162;28;20040;-41
2023/08/31 18:50:13;;;;;;;1.15;0.57;;;27.50;56.90;;;;;;10445486;28;20049;-39
2023/08/31 18:55:17;;;;;;;1.60;0.50;;;27.50;57.00;;;;;;10442067;28;20511;-39
2023/08/31 19:00:19;;;;;;;2.20;0.73;;;27.40;57.10;;;;;;10444081;28;20053;-36
2023/08/31 19:05:22;;;;;;;3.05;0.47;;;27.40;57.10;;;;;;10442962;28;20127;-36
2023/08/31 19:10:26;;;;;;;2.47;0.57;;;27.40;57.30;;;;;;10448463;28;20068;-37
2023/08/31 19:15:27;;;;;;;2.22;0.77;;;27.30;57.40;;;;;;10441522;28;20237;-43
2023/08/31 19:20:29;;;;;;;1.58;0.63;;;27.30;58.00;;;;;;10446111;28;20102;-32
2023/08/31 19:25:33;;;;;;;2.45;0.65;;;27.20;58.00;;;;;;10443363;28;20137;-36
2023/08/31 19:30:35;;;;;;;4.18;1.38;;;27.20;57.50;;;;;;10443998;28;20144;-40
2023/08/31 19:35:37;;;;;;;3.30;0.77;;;27.20;57.70;;;;;;10440924;28;20607;-31
2023/08/31 19:40:40;;;;;;;2.08;1.05;;;27.10;57.70;;;;;;10443688;28;20110;-43
2023/08/31 19:45:42;;;;;;;4.65;0.90;;;27.10;57.80;;;;;;10439338;28;20078;-40
2023/08/31 19:50:44;;;;;;;2.92;0.90;;;27.10;57.80;;;;;;10450496;28;20080;-39
2023/08/31 19:55:51;;;;;;;3.15;0.85;;;27.00;57.80;;;;;;10451347;28;20045;-35
2023/08/31 20:00:52;;;;;;;1.23;0.90;;;27.00;57.80;;;;;;10451231;28;20055;-34
2023/08/31 20:05:56;;;;;;;3.72;1.00;;;27.00;57.90;;;;;;10464763;28;20071;-39
2023/08/31 20:11:01;;;;;;;2.95;1.17;;;27.00;58.00;;;;;;10450292;28;20068;-39
2023/08/31 20:16:03;;;;;;;1.55;0.90;;;27.00;57.90;;;;;;10454025;28;20067;-33
2023/08/31 20:21:05;;;;;;;2.40;1.02;;;26.90;57.90;;;;;;10450471;28;20060;-36
2023/08/31 20:26:09;;;;;;;1.88;1.10;;;26.90;57.90;;;;;;10448778;28;20569;-36
2023/08/31 20:31:11;;;;;;;7.13;1.30;;;26.80;58.00;;;;;;10458777;28;20120;-39
2023/08/31 20:36:13;;;;;;;4.65;1.17;;;26.80;57.90;;;;;;10451612;28;20055;-34
2023/08/31 20:41:17;;;;;;;4.90;1.20;;;26.80;57.90;;;;;;10448342;28;20041;-36
2023/08/31 20:46:19;;;;;;;2.33;1.15;;;26.80;57.80;;;;;;10456728;28;20056;-41
2023/08/31 20:51:21;;;;;;;3.20;1.13;;;26.70;57.90;;;;;;10453091;28;20099;-32
2023/08/31 20:56:24;;;;;;;4.85;1.70;;;26.70;58.00;;;;;;10457705;28;20573;-31
2023/08/31 21:01:26;;;;;;;4.05;1.48;;;26.70;58.10;;;;;;10451352;28;20079;-32
2023/08/31 21:06:29;;;;;;;2.20;1.10;;;26.60;58.10;;;;;;10452889;28;20477;-34
2023/08/31 21:11:32;;;;;;;3.00;1.25;;;26.60;58.10;;;;;;10447854;28;20147;-35
2023/08/31 21:16:34;;;;;;;5.03;1.98;;;26.50;58.10;;;;;;10449708;28;20087;-33
2023/08/31 21:21:36;;;;;;;2.38;1.50;;;26.40;58.20;;;;;;10451197;28;20051;-33
2023/08/31 21:26:39;;;;;;;2.92;1.80;;;26.50;58.20;;;;;;10449125;28;20049;-33
2023/08/31 21:31:41;;;;;;;3.92;1.60;;;26.50;58.40;;;;;;10450376;28;20055;-37
2023/08/31 21:36:43;;;;;;;3.97;1.85;;;26.40;58.50;;;;;;10456228;28;20175;-33
2023/08/31 21:41:46;;;;;;;3.28;1.40;;;26.40;58.50;;;;;;10443848;28;20098;-35
2023/08/31 21:46:48;;;;;;;3.60;1.60;;;26.30;58.50;;;;;;10431200;28;20053;-28
2023/08/31 21:51:50;;;;;;;3.35;1.65;;;26.40;58.60;;;;;;10447402;28;20119;-32
2023/08/31 21:56:55;;;;;;;3.45;1.80;;;26.30;58.50;;;;;;10444656;28;20863;-36
2023/08/31 22:01:56;;;;;;;3.70;2.20;;;26.30;58.60;;;;;;10446023;28;20041;-43
2023/08/31 22:06:58;;;;;;;3.78;2.42;;;26.30;58.60;;;;;;10456149;28;20137;-42
2023/08/31 22:12:02;;;;;;;4.93;2.38;;;26.30;58.70;;;;;;10456915;28;20474;-29
2023/08/31 22:17:04;;;;;;;2.63;1.63;;;26.30;58.70;;;;;;10450315;28;20072;-32
2023/08/31 22:22:06;;;;;;;5.15;2.15;;;26.30;58.80;;;;;;10453984;28;20206;-42
2023/08/31 22:27:09;;;;;;;3.30;1.60;;;26.20;58.80;;;;;;10444841;28;20456;-35
2023/08/31 22:32:12;;;;;;;2.60;1.77;;;26.20;58.90;;;;;;10446761;28;20051;-34
2023/08/31 22:37:14;;;;;;;2.85;1.80;;;26.20;59.10;;;;;;10445324;28;20088;-36
2023/08/31 22:42:17;;;;;;;3.35;2.05;;;26.20;59.70;;;;;;10450145;28;20067;-34
2023/08/31 22:47:19;;;;;;;3.45;1.70;;;26.10;59.00;;;;;;10446984;28;20095;-34
2023/08/31 22:52:21;;;;;;;3.20;1.88;;;26.10;59.10;;;;;;10445897;28;20089;-32
2023/08/31 22:57:25;;;;;;;2.58;1.80;;;26.10;59.20;;;;;;10444680;28;20148;-34
2023/08/31 23:02:26;;;;;;;5.32;2.00;;;26.00;59.20;;;;;;10451541;28;20051;-36
2023/08/31 23:07:28;;;;;;;3.63;1.85;;;26.00;59.20;;;;;;10448377;28;20139;-37
2023/08/31 23:12:31;;;;;;;2.80;2.03;;;26.00;59.30;;;;;;10445855;28;20559;-35
2023/08/31 23:17:33;;;;;;;2.25;1.70;;;26.00;59.30;;;;;;10456079;28;20078;-42
2023/08/31 23:22:35;;;;;;;2.38;1.63;;;25.90;59.40;;;;;;10450049;28;20114;-36
2023/08/31 23:27:38;;;;;;;3.97;1.80;;;25.90;59.30;;;;;;10454398;28;20090;-34
2023/08/31 23:32:40;;;;;;;4.78;2.38;;;25.90;59.40;;;;;;10455757;28;20064;-35
2023/08/31 23:37:42;;;;;;;4.40;2.28;;;25.90;59.40;;;;;;10446255;28;20068;-38
2023/08/31 23:42:45;;;;;;;2.97;1.98;;;25.90;59.40;;;;;;10461340;28;20077;-35
2023/08/31 23:47:47;;;;;;;2.85;1.80;;;25.80;59.40;;;;;;10454766;28;20088;-37
2023/08/31 23:52:48;;;;;;;;;;;25.80;59.30;;;;;;10456209;28;20076;-39
2023/08/31 23:57:51;;;;;;;3.15;1.60;;;25.80;59.30;;;;;;10454983;28;20373;-36
